Etusivu
METAR-TAF:

METAR-TAF

Lentoasemat :

Sabadell, Espanja

Leveyspiiri: 41-31N, Pituuspiiri: 002-06E, korkeus merenpinnasta: 250 m

Tämänhetkinen sää

Tämä raportti tehtiin 15 minuuttia sitten, kello 05.30 UTC
Tuuli 2 kn eri suunnista
Lämpötila 5°C
Kosteus 93%
Ilmanpaine 1028 hPa
Näkyvyys 10 km tai enemmän
ei pilviä alle 1500 m:ssä eikä cumulonimbus-pilviä

METAR: LELL 210530Z AUTO VRB02KT CAVOK 05/04 Q1028

Aika: 06:45 (05:45 UTC)

Sääennuste

Tämä raportti tehtiin 3 tuntia ja 45 minuuttia sitten, kello 02.00 UTC
Ennuste voimassa 21. päivästä klo 03 UTC - 22. päivään klo 03 UTC
Tuuli 3 kn eri suunnista
Näkyvyys 10 km tai enemmän
Muutamia pilviä 2000 ft:n korkeudessa
Tulossa
21. päivästä klo 09 UTC - 21. päivään klo 11 UTC
Tuuli 10 kn lounaasta
Tulossa
21. päivästä klo 17 UTC - 21. päivään klo 20 UTC
Tuuli 3 kn eri suunnista

TAF: LELL 210200Z 2103/2203 VRB03KT 9999 FEW020 TX18/2113Z TN05/2106Z BECMG 2109/2111 23010KT BECMG 2117/2120 VRB03KT

Säähavainnot ja -ennusteet yli 4000 lentoasemalta (METAR- ja TAF-raportit).

Käytössä olevat sääasemat on merkitty karttaan keltaisilla ja punaisilla pisteillä.

Aseta hiiri pisteen päälle nähdäksesi sääaseman nimen.

Klikkaa sitten nähdäksesi säähavainnot ja -ennusteet.

Kartan vaihtaminen: klikkaa mustalla rastilla varustettuja vihreitä pisteitä, niin voit zoomata sisään; viivalla varustettua vihreää pistettä, niin voit zoomata ulos tai vihreitä nuolia, niin pääset viereisille kartoille.


METAR-TAF: